Latest Conditions
At L.F.Wade Int. Airport
Recorded at 8:55 am
Showers
Temp.: 
17°C/63°F
Humidity: 
74%
Wind: 
W 25KT
or 29mph
Island Observations
 
Observations
Saturday, April 04, 2020

Observations are in local time and taken at least once an hour, or upon the start and end of specified events such as showers and thunderstorms.

Time Sky / Weather Wind Speed/Gusts Temp. R.H. Pressure
     knots (mph)  °C (°F)  %  mb / "Hg
 08:55 Mostly Cloudy Showers W 25/0 (29/0) 17(63) 74 1000 / 29.54
 08:30 Mostly Cloudy Showers WNW 25/0 (29/0) 18(64) 76 1001 / 29.55
 08:04 Mostly Cloudy Showers W 22/0 (25/0) 17(63) 77 1000 / 29.54
 07:55 Mostly Cloudy Showers W 24/0 (28/0) 17(63) 74 1001 / 29.55
 07:30 Mostly Cloudy Showers W 22/0 (25/0) 17(63) 77 1001 / 29.55
 07:00 Mostly Cloudy Showers WNW 28/0 (32/0) 16(61) 83 1001 / 29.55
 06:55 Mostly Cloudy Showers W 25/0 (29/0) 18(64) 66 1001 / 29.55
 05:55 Mostly Cloudy Showers W 19/29 (22/33) 18(64) 62 1000 / 29.54
 05:37 Mostly Cloudy Showers WNW 25/0 (29/0) 18(65) 62 1001 / 29.55
 04:55 Mostly Cloudy Showers W 27/0 (31/0) 18(65) 58 1000 / 29.54
 03:55 Few Clouds  W 27/37 (31/43) 18(65) 52 1001 / 29.56
 02:55 Few Clouds  W 26/0 (30/0) 18(65) 55 1002 / 29.58
 01:55 Partly Cloudy Showers W 26/0 (30/0) 18(65) 54 1002 / 29.60
 00:55 Few Clouds  W 28/0 (32/0) 18(65) 55 1003 / 29.61
 23:55 Partly Cloudy  W 28/0 (32/0) 18(65) 59 1003 / 29.62
 22:55 Mostly Cloudy  W 23/0 (26/0) 18(65) 54 1003 / 29.63
 21:55 Partly Cloudy  W 26/0 (30/0) 18(65) 59 1003 / 29.63
 20:55 Mostly Cloudy Showers W 23/0 (26/0) 18(65) 56 1003 / 29.61
 20:31 Mostly Cloudy Showers WNW 24/0 (28/0) 18(65) 63 1003 / 29.61
 20:24 Mostly Cloudy Showers W 23/0 (26/0) 17(62) 74 1003 / 29.61
 19:55 Mostly Cloudy Showers W 24/0 (28/0) 17(62) 74 1002 / 29.60
 19:09 Mostly Cloudy Showers W 18/0 (21/0) 17(63) 72 1003 / 29.61
 18:55 Mostly Cloudy Showers WNW 20/0 (23/0) 16(60) 77 1003 / 29.62
 18:43 Mostly Cloudy Showers W 22/35 (25/40) 15(60) 77 1003 / 29.62
 18:37 Mostly Cloudy Showers W 20/0 (23/0) 18(65) 62 1003 / 29.63
 18:20 Mostly Cloudy Showers WNW 25/0 (29/0) 18(65) 68 1003 / 29.62
 18:00 Mostly Cloudy Showers WNW 25/0 (29/0) 18(65) 68 1003 / 29.61
 17:55 Mostly Cloudy Showers W 22/0 (25/0) 18(65) 62 1002 / 29.60
 16:55 Partly Cloudy Showers W 24/0 (28/0) 19(67) 60 1002 / 29.60
 15:55 Mostly Cloudy  W 26/0 (30/0) 19(67) 60 1003 / 29.61
 15:26 Partly Cloudy Showers WNW 17/0 (20/0) 18(64) 71 1003 / 29.63
 15:03 Mostly Cloudy Showers WNW 22/0 (25/0) 18(64) 65 1003 / 29.63
 14:55 Mostly Cloudy Showers W 21/0 (24/0) 18(64) 63 1004 / 29.64
 14:33 Mostly Cloudy Showers W 24/0 (28/0) 16(62) 71 1004 / 29.65
 13:55 Mostly Cloudy Showers W 22/0 (25/0) 18(65) 63 1004 / 29.65
 12:55 Partly Cloudy Showers W 14/0 (16/0) 18(64) 72 1004 / 29.66
 12:36 Mostly Cloudy Showers WNW 16/0 (18/0) 16(61) 77 1005 / 29.67
 12:32 Mostly Cloudy Showers W 22/0 (25/0) 15(60) 80 1005 / 29.67
 12:24 Mostly Cloudy Showers WSW 21/0 (24/0) 16(61) 75 1005 / 29.67
 11:55 Mostly Cloudy Showers W 19/0 (22/0) 16(61) 81 1005 / 29.68
 11:33 Mostly Cloudy Showers W 23/0 (26/0) 16(60) 78 1005 / 29.69
 11:26 Mostly Cloudy Showers W 20/31 (23/36) 15(59) 81 1005 / 29.69
 11:23 Mostly Cloudy Showers W 19/0 (22/0) 15(59) 81 1005 / 29.68
 11:17 Mostly Cloudy Showers W 19/0 (22/0) 15(59) 84 1005 / 29.69
 11:11 Mostly Cloudy Showers WNW 20/0 (23/0) 16(61) 77 1005 / 29.68
 10:55 Mostly Cloudy Showers W 22/0 (25/0) 18(64) 62 1005 / 29.67
 10:39 Partly Cloudy Showers WNW 21/0 (24/0) 16(62) 75 1005 / 29.67
 10:31 Partly Cloudy Showers WNW 22/0 (25/0) 16(62) 68 1005 / 29.68
 09:55 Few Clouds  W 24/0 (28/0) 17(63) 59 1005 / 29.68
 08:55 Partly Cloudy  W 23/0 (26/0) 17(63) 59 1005 / 29.67
 07:55 Partly Cloudy  W 23/0 (26/0) 17(63) 61 1004 / 29.66
 06:55 Few Clouds  W 30/0 (35/0) 17(63) 57 1004 / 29.65
 05:55 Mostly Cloudy Showers W 26/0 (30/0) 17(63) 63 1003 / 29.63
 04:55 Mostly Cloudy  WNW 24/0 (28/0) 17(63) 61 1004 / 29.64
 04:12 Mostly Cloudy Showers WNW 21/0 (24/0) 16(62) 68 1004 / 29.65
 03:55 Mostly Cloudy Showers W 24/0 (28/0) 17(63) 66 1004 / 29.64
 03:22 Mostly Cloudy Showers WNW 23/33 (26/38) 16(62) 70 1004 / 29.65
 02:55 Partly Cloudy Showers W 20/0 (23/0) 17(62) 73 1004 / 29.66
 02:23 Mostly Cloudy Showers W 19/0 (22/0) 16(60) 76 1005 / 29.68
 02:09 Mostly Cloudy Showers W 24/39 (28/45) 15(60) 80 1005 / 29.68
 02:02 Mostly Cloudy Showers W 20/0 (23/0) 16(61) 76 1005 / 29.68
 01:55 Mostly Cloudy Showers W 19/0 (22/0) 16(61) 75 1005 / 29.68
 01:41 Mostly Cloudy Showers W 19/0 (22/0) 16(60) 76 1005 / 29.68
 01:33 Mostly Cloudy Showers W 26/39 (30/45) 16(62) 69 1006 / 29.70
 01:26 Mostly Cloudy Showers W 22/0 (25/0) 16(62) 69 1005 / 29.69
 00:55 Partly Cloudy  W 18/0 (21/0) 17(62) 69 1005 / 29.69
 00:30 Mostly Cloudy Showers WNW 17/0 (20/0) 16(61) 77 1005 / 29.69
 00:23 Mostly Cloudy Showers WNW 26/38 (30/44) 15(59) 80 1006 / 29.70
 00:18 Mostly Cloudy Showers W 22/33 (25/38) 16(61) 75 1006 / 29.70
 00:15 Mostly Cloudy Showers WNW 24/0 (28/0) 17(63) 70 1005 / 29.69
 23:55 Mostly Cloudy Showers W 22/0 (25/0) 17(62) 71 1006 / 29.70
 23:40 Mostly Cloudy Showers WNW 22/0 (25/0) 17(62) 73 1006 / 29.70
 23:17 Mostly Cloudy Showers W 20/0 (23/0) 18(64) 68 1006 / 29.70
 23:06 Mostly Cloudy Showers W 21/0 (24/0) 18(64) 68 1006 / 29.70
 22:55 Mostly Cloudy Showers W 22/0 (25/0) 18(64) 61 1006 / 29.70
 21:55 Mostly Cloudy  W 24/0 (28/0) 18(64) 64 1006 / 29.70
 20:55 Mostly Cloudy Showers W 19/0 (22/0) 18(64) 61 1005 / 29.69
 20:42 Mostly Cloudy Showers WNW 19/0 (22/0) 18(64) 68 1005 / 29.69
 19:55 Mostly Cloudy Showers W 23/0 (26/0) 18(64) 61 1005 / 29.68
 19:21 Mostly Cloudy Showers WNW 17/0 (20/0) 18(64) 63 1005 / 29.68
 19:07 Mostly Cloudy Showers WNW 20/0 (23/0) 18(64) 63 1005 / 29.68
 18:55 Mostly Cloudy Showers W 23/0 (26/0) 18(64) 63 1005 / 29.68
 17:55 Mostly Cloudy Showers W 24/0 (28/0) 18(65) 57 1005 / 29.67
 16:55 Partly Cloudy  W 25/0 (29/0) 18(65) 59 1005 / 29.67
 15:55 Partly Cloudy Showers W 26/0 (30/0) 19(66) 55 1004 / 29.65
 14:55 Partly Cloudy Showers WNW 25/0 (29/0) 19(66) 61 1005 / 29.67
 14:41 Partly Cloudy Showers NW 25/0 (29/0) 18(64) 64 1005 / 29.67
 13:55 Partly Cloudy  W 26/0 (30/0) 18(65) 57 1005 / 29.67
 13:38 Partly Cloudy Showers WNW 25/0 (29/0) 18(64) 60 1005 / 29.67
 13:24 Mostly Cloudy Showers WNW 29/0 (33/0) 18(64) 68 1005 / 29.68
 12:55 Partly Cloudy  W 27/0 (31/0) 18(65) 58 1005 / 29.67
 11:55 Partly Cloudy  W 28/0 (32/0) 18(65) 58 1004 / 29.66
 10:55 Partly Cloudy Showers WNW 26/0 (30/0) 18(64) 65 1004 / 29.66
 10:45 Partly Cloudy Showers W 26/0 (30/0) 16(62) 74 1004 / 29.66
 09:55 Partly Cloudy  WNW 24/0 (28/0) 18(65) 64 1004 / 29.64
 08:55 Partly Cloudy  WNW 24/0 (28/0) 18(64) 65 1003 / 29.62
 07:55 Mostly Cloudy  WNW 22/0 (25/0) 18(64) 69 1002 / 29.59
 07:36 Mostly Cloudy Showers NW 23/0 (26/0) 18(64) 67 1002 / 29.59
 07:27 Mostly Cloudy Showers NW 23/0 (26/0) 17(63) 70 1002 / 29.58
 06:55 Mostly Cloudy Showers WNW 22/0 (25/0) 17(63) 77 1001 / 29.57
Island AWOS